Time;durP1;ratioP1;P1;durP2;ratioP2;P2;SDS_P1;SDS_P2;PMS_P1;PMS_P2;Temp;Humidity;BMP_temperature;BMP_pressure;BME280_temperature;BME280_humidity;BME280_pressure;Samples;Min_cycle;Max_cycle;Signal;HPM_P1;HPM_P2
2021/12/07 00:00:44;;;;;;;;;;;20.60;99.90;;;;;;5070531;28;19936;-80
2021/12/07 00:03:11;;;;;;;;;;;20.60;99.90;;;;;;5070796;28;19912;-78
2021/12/07 00:05:38;;;;;;;;;;;20.80;99.90;;;;;;5070121;28;20023;-80
2021/12/07 00:08:04;;;;;;;;;;;21.10;99.90;;;;;;5070250;28;20382;-80
2021/12/07 00:10:31;;;;;;;;;;;21.30;99.90;;;;;;5070513;28;19916;-79
2021/12/07 00:12:58;;;;;;;;;;;21.50;99.90;;;;;;5058841;28;20378;-78
2021/12/07 00:15:25;;;;;;;;;;;21.60;99.90;;;;;;5072674;28;19924;-79
2021/12/07 00:17:52;;;;;;;;;;;21.80;99.90;;;;;;5073503;28;19912;-81
2021/12/07 00:20:20;;;;;;;;;;;22.00;99.90;;;;;;5074320;28;19919;-77
2021/12/07 00:22:49;;;;;;;;;;;22.00;99.90;;;;;;5074037;28;19919;-79
2021/12/07 00:25:16;;;;;;;;;;;22.00;99.90;;;;;;5074320;28;19920;-81
2021/12/07 00:27:43;;;;;;;;;;;22.10;99.90;;;;;;5073816;28;20362;-79
2021/12/07 00:30:11;;;;;;;;;;;22.40;99.90;;;;;;5073968;28;19954;-80
2021/12/07 00:32:43;;;;;;;;;;;22.70;99.90;;;;;;5073382;28;19913;-79
2021/12/07 00:35:24;;;;;;;;;;;22.90;99.90;;;;;;5073975;28;20014;-75
2021/12/07 00:37:54;;;;;;;;;;;23.10;99.90;;;;;;5073560;28;20073;-78
2021/12/07 00:40:21;;;;;;;;;;;23.50;99.90;;;;;;5074130;28;19999;-79
2021/12/07 00:42:48;;;;;;;;;;;24.00;99.90;;;;;;5073495;28;19912;-75
2021/12/07 00:45:19;;;;;;;;;;;24.40;99.90;;;;;;5074088;28;19920;-79
2021/12/07 00:47:46;;;;;;;;;;;24.90;99.90;;;;;;5073454;28;19928;-76
2021/12/07 00:50:13;;;;;;;;;;;25.10;99.90;;;;;;5073977;28;19959;-76
2021/12/07 00:52:40;;;;;;;;;;;25.30;99.90;;;;;;5073287;28;19982;-77
2021/12/07 00:55:08;;;;;;;;;;;25.50;99.90;;;;;;5073658;28;19955;-78
2021/12/07 00:57:35;;;;;;;;;;;25.70;99.90;;;;;;5073238;28;19920;-74
2021/12/07 01:00:05;;;;;;;;;;;25.90;99.90;;;;;;5073694;28;20287;-79
2021/12/07 01:02:32;;;;;;;;;;;26.00;99.90;;;;;;5073313;28;19920;-77
2021/12/07 01:05:08;;;;;;;;;;;26.10;99.90;;;;;;5073472;28;19917;-78
2021/12/07 01:26:55;;;;;;;;;;;27.70;99.90;;;;;;5072881;28;19982;-77
2021/12/07 01:29:25;;;;;;;;;;;28.00;99.90;;;;;;5072430;28;19916;-77
2021/12/07 01:32:08;;;;;;;;;;;27.80;99.90;;;;;;5072555;28;19917;-77
2021/12/07 01:47:49;;;;;;;;;;;27.30;99.90;;;;;;5071906;28;20098;-76
2021/12/07 01:50:43;;;;;;;;;;;26.80;99.90;;;;;;5073074;28;19916;-77
2021/12/07 02:01:29;;;;;;;;;;;26.00;99.90;;;;;;5050392;28;19946;-76
2021/12/07 02:03:56;;;;;;;;;;;26.00;99.90;;;;;;5050430;28;20446;-77
2021/12/07 02:06:22;;;;;;;;;;;26.00;99.90;;;;;;5071995;28;19966;-76
2021/12/07 02:08:49;;;;;;;;;;;26.00;99.90;;;;;;5072143;28;19921;-77
2021/12/07 02:11:16;;;;;;;;;;;26.00;99.90;;;;;;5071832;28;19965;-75
2021/12/07 02:16:10;;;;;;;;;;;26.00;99.90;;;;;;5073693;28;19920;-74
2021/12/07 02:18:37;;;;;;;;;;;25.80;99.90;;;;;;5072928;28;20385;-74
2021/12/07 02:21:17;;;;;;;;;;;25.60;99.90;;;;;;5069466;28;19923;-76
2021/12/07 02:23:43;;;;;;;;;;;25.50;99.90;;;;;;5072488;28;19919;-77
2021/12/07 02:26:10;;;;;;;;;;;25.60;99.90;;;;;;5071607;28;20058;-76
2021/12/07 02:28:39;;;;;;;;;;;25.70;99.90;;;;;;5071949;28;19913;-75
2021/12/07 02:31:06;;;;;;;;;;;25.30;99.90;;;;;;5071350;28;19924;-77
2021/12/07 02:33:33;;;;;;;;;;;25.20;99.90;;;;;;5071857;28;19917;-75
2021/12/07 02:36:00;;;;;;;;;;;25.10;99.90;;;;;;5071107;28;19920;-74
2021/12/07 02:38:27;;;;;;;;;;;25.00;99.90;;;;;;5071148;28;19981;-75
2021/12/07 02:40:53;;;;;;;;;;;25.10;99.90;;;;;;5071372;28;20008;-74
2021/12/07 02:43:20;;;;;;;;;;;25.10;99.90;;;;;;5060043;28;19920;-73
2021/12/07 02:45:47;;;;;;;;;;;25.10;99.90;;;;;;5071249;28;19966;-76
2021/12/07 02:48:14;;;;;;;;;;;25.10;99.90;;;;;;5070865;28;19927;-77
2021/12/07 02:50:40;;;;;;;;;;;25.20;99.90;;;;;;5070239;28;19948;-76
2021/12/07 02:53:08;;;;;;;;;;;25.20;99.90;;;;;;5071195;28;19916;-75
2021/12/07 02:55:35;;;;;;;;;;;25.10;99.90;;;;;;5071672;28;20127;-78
2021/12/07 02:58:01;;;;;;;;;;;25.20;99.90;;;;;;5070863;28;19966;-76
2021/12/07 03:00:36;;;;;;;;;;;25.20;99.90;;;;;;5071595;28;19913;-75
2021/12/07 03:03:07;;;;;;;;;;;25.20;99.90;;;;;;5071085;28;19951;-75
2021/12/07 03:05:50;;;;;;;;;;;24.90;99.90;;;;;;5071632;28;19940;-74
2021/12/07 03:27:21;;;;;;;;;;;24.10;99.90;;;;;;5071928;28;20016;-74
2021/12/07 03:29:48;;;;;;;;;;;24.00;99.90;;;;;;5070439;28;19920;-75
2021/12/07 03:32:15;;;;;;;;;;;23.90;99.90;;;;;;5071139;28;20003;-79
2021/12/07 03:34:41;;;;;;;;;;;23.80;99.90;;;;;;5070585;28;19912;-78
2021/12/07 03:37:08;;;;;;;;;;;23.80;99.90;;;;;;5071440;28;19923;-78
2021/12/07 03:39:35;;;;;;;;;;;23.70;99.90;;;;;;5070771;28;19926;-78
2021/12/07 03:42:02;;;;;;;;;;;23.80;99.90;;;;;;5071104;28;20002;-77
2021/12/07 03:44:30;;;;;;;;;;;23.90;99.90;;;;;;5070586;28;20260;-77
2021/12/07 03:46:57;;;;;;;;;;;24.10;99.90;;;;;;5070982;28;20363;-75
2021/12/07 03:49:23;;;;;;;;;;;24.30;99.90;;;;;;5068501;28;19970;-74
2021/12/07 03:51:50;;;;;;;;;;;24.20;99.90;;;;;;5063129;28;19920;-78
2021/12/07 03:54:17;;;;;;;;;;;24.20;99.90;;;;;;5074728;28;19913;-76
2021/12/07 03:56:43;;;;;;;;;;;24.10;99.90;;;;;;5074454;28;20012;-77
2021/12/07 03:59:10;;;;;;;;;;;24.10;99.90;;;;;;5073781;28;20057;-78
2021/12/07 04:01:37;;;;;;;;;;;24.20;99.90;;;;;;5074457;28;20007;-75
2021/12/07 04:04:03;;;;;;;;;;;24.10;99.90;;;;;;5074762;28;19912;-76
2021/12/07 04:06:30;;;;;;;;;;;24.10;99.90;;;;;;5074447;28;19927;-76
2021/12/07 04:08:57;;;;;;;;;;;24.20;99.90;;;;;;5064138;28;19924;-75
2021/12/07 04:11:24;;;;;;;;;;;24.20;99.90;;;;;;5056273;28;19919;-75
2021/12/07 04:13:50;;;;;;;;;;;24.30;99.90;;;;;;5055677;28;19916;-74
2021/12/07 04:16:18;;;;;;;;;;;24.30;99.90;;;;;;5056016;28;20537;-72
2021/12/07 04:18:45;;;;;;;;;;;24.20;99.90;;;;;;5055630;28;19970;-76
2021/12/07 04:21:11;;;;;;;;;;;24.00;99.90;;;;;;5056289;28;19920;-76
2021/12/07 04:23:38;;;;;;;;;;;23.90;99.90;;;;;;5055864;28;19913;-76
2021/12/07 04:26:07;;;;;;;;;;;23.80;99.90;;;;;;5055553;28;19920;-75
2021/12/07 04:28:34;;;;;;;;;;;23.70;99.90;;;;;;5043570;28;19917;-74
2021/12/07 04:31:01;;;;;;;;;;;23.60;99.90;;;;;;5055445;28;19991;-75
2021/12/07 04:33:30;;;;;;;;;;;23.50;99.90;;;;;;5055454;28;19921;-73
2021/12/07 04:35:58;;;;;;;;;;;23.40;99.90;;;;;;5055080;28;20016;-74
2021/12/07 04:38:24;;;;;;;;;;;23.30;99.90;;;;;;5055446;28;19913;-77
2021/12/07 04:40:51;;;;;;;;;;;23.30;99.90;;;;;;5055421;28;19920;-75
2021/12/07 04:43:18;;;;;;;;;;;23.30;99.90;;;;;;5055873;28;19970;-73
2021/12/07 04:59:09;;;;;;;;;;;22.80;99.90;;;;;;5055381;28;19920;-77
2021/12/07 05:01:36;;;;;;;;;;;22.70;99.90;;;;;;5054467;28;20320;-75
2021/12/07 05:04:10;;;;;;;;;;;22.70;99.90;;;;;;5054565;28;20407;-72
2021/12/07 05:06:42;;;;;;;;;;;22.60;99.90;;;;;;5058690;28;19912;-79
2021/12/07 05:09:40;;;;;;;;;;;22.30;99.90;;;;;;5062726;28;20264;-79
2021/12/07 05:14:30;;;;;;;;;;;21.80;99.90;;;;;;5054916;28;19917;-78
2021/12/07 05:38:37;;;;;;;;;;;20.80;99.90;;;;;;5054834;28;20000;-78
2021/12/07 05:41:06;;;;;;;;;;;20.70;99.90;;;;;;5054111;28;20383;-78
2021/12/07 05:43:33;;;;;;;;;;;20.70;99.90;;;;;;5054656;28;19913;-78
2021/12/07 05:45:59;;;;;;;;;;;20.70;99.90;;;;;;5053741;28;19947;-77
2021/12/07 05:48:26;;;;;;;;;;;20.60;99.90;;;;;;5054658;28;19924;-78
2021/12/07 05:50:53;;;;;;;;;;;20.60;99.90;;;;;;5053011;28;19912;-78
2021/12/07 05:53:19;;;;;;;;;;;20.60;99.90;;;;;;5052359;28;20122;-78
2021/12/07 05:55:46;;;;;;;;;;;20.60;99.90;;;;;;5051616;28;19925;-78
2021/12/07 05:58:13;;;;;;;;;;;20.60;99.90;;;;;;5052844;28;19931;-79
2021/12/07 06:00:43;;;;;;;;;;;20.60;99.90;;;;;;5051950;28;20010;-78
2021/12/07 06:03:11;;;;;;;;;;;20.60;99.90;;;;;;5052619;28;19921;-78
2021/12/07 06:05:39;;;;;;;;;;;20.70;99.90;;;;;;5051100;28;19932;-78
2021/12/07 06:08:05;;;;;;;;;;;20.70;99.90;;;;;;5054597;28;19916;-79
2021/12/07 06:10:32;;;;;;;;;;;20.70;99.90;;;;;;5070291;28;20059;-78
2021/12/07 06:12:59;;;;;;;;;;;20.60;99.90;;;;;;5069661;28;20042;-77
2021/12/07 06:15:27;;;;;;;;;;;20.70;99.90;;;;;;5070195;28;19979;-78
2021/12/07 06:17:54;;;;;;;;;;;20.70;99.90;;;;;;5069351;28;19917;-78
2021/12/07 06:20:24;;;;;;;;;;;20.70;99.90;;;;;;5100388;28;20242;-78
2021/12/07 06:22:51;;;;;;;;;;;20.70;99.90;;;;;;5070314;28;20007;-78
2021/12/07 06:25:18;;;;;;;;;;;20.70;99.90;;;;;;5069794;28;19913;-78
2021/12/07 06:27:44;;;;;;;;;;;20.70;99.90;;;;;;5070384;28;19923;-79
2021/12/07 06:30:12;;;;;;;;;;;20.70;99.90;;;;;;5069103;28;19921;-79
2021/12/07 06:32:39;;;;;;;;;;;20.80;99.90;;;;;;5070272;28;20342;-79
2021/12/07 06:35:06;;;;;;;;;;;20.80;99.90;;;;;;5069639;28;19920;-78
2021/12/07 06:37:33;;;;;;;;;;;20.80;99.90;;;;;;5070160;28;20266;-78
2021/12/07 06:40:00;;;;;;;;;;;20.80;99.90;;;;;;5069320;28;20012;-78
2021/12/07 06:42:27;;;;;;;;;;;20.80;99.90;;;;;;5070197;28;19927;-78
2021/12/07 06:44:53;;;;;;;;;;;20.70;99.90;;;;;;5069049;28;19999;-78
2021/12/07 06:47:20;;;;;;;;;;;20.70;99.90;;;;;;5069813;28;20313;-77
2021/12/07 06:49:48;;;;;;;;;;;20.70;99.90;;;;;;5065974;28;19921;-79
2021/12/07 06:52:15;;;;;;;;;;;20.70;99.90;;;;;;5069851;28;19916;-80
2021/12/07 06:54:42;;;;;;;;;;;20.60;99.90;;;;;;5069476;28;19912;-77
2021/12/07 06:57:08;;;;;;;;;;;20.60;99.90;;;;;;5056456;28;19924;-77
2021/12/07 06:59:35;;;;;;;;;;;20.60;99.90;;;;;;5069670;28;19928;-77
2021/12/07 07:02:01;;;;;;;;;;;20.50;99.90;;;;;;5068946;28;19917;-77
2021/12/07 07:04:28;;;;;;;;;;;20.50;99.90;;;;;;5066208;28;19966;-78
2021/12/07 07:06:55;;;;;;;;;;;20.50;99.90;;;;;;5068832;28;19956;-78
2021/12/07 07:09:21;;;;;;;;;;;20.50;99.90;;;;;;5069267;28;19936;-79
2021/12/07 07:11:48;;;;;;;;;;;20.40;99.90;;;;;;5068872;28;20049;-78
2021/12/07 07:14:16;;;;;;;;;;;20.40;99.90;;;;;;5069400;28;19916;-78
2021/12/07 07:16:42;;;;;;;;;;;20.40;99.90;;;;;;5055451;28;20913;-77
2021/12/07 07:19:09;;;;;;;;;;;20.30;99.90;;;;;;5069501;28;19919;-79
2021/12/07 07:21:39;;;;;;;;;;;20.30;99.90;;;;;;5069015;28;19912;-77
2021/12/07 07:24:17;;;;;;;;;;;20.30;99.90;;;;;;5069199;28;20202;-78
2021/12/07 07:27:19;;;;;;;;;;;20.40;99.90;;;;;;5067513;28;19920;-80
2021/12/07 07:29:46;;;;;;;;;;;20.40;99.90;;;;;;5062924;28;20320;-79
2021/12/07 07:32:12;;;;;;;;;;;20.40;99.90;;;;;;5101108;28;19960;-79
2021/12/07 07:34:39;;;;;;;;;;;20.50;99.90;;;;;;5069063;28;19919;-79
2021/12/07 07:37:06;;;;;;;;;;;20.50;99.90;;;;;;5068672;28;19924;-78
2021/12/07 07:39:32;;;;;;;;;;;20.50;99.90;;;;;;5068490;28;19916;-79
2021/12/07 07:41:59;;;;;;;;;;;20.50;99.90;;;;;;5068148;28;20416;-79
2021/12/07 07:44:26;;;;;;;;;;;20.50;99.90;;;;;;5068551;28;20397;-78
2021/12/07 07:46:53;;;;;;;;;;;20.50;99.90;;;;;;5068568;28;20385;-77
2021/12/07 07:49:20;;;;;;;;;;;20.50;99.90;;;;;;5068825;28;20374;-77
2021/12/07 07:51:47;;;;;;;;;;;20.50;99.90;;;;;;5068364;28;19920;-77
2021/12/07 07:54:14;;;;;;;;;;;20.50;99.90;;;;;;5068594;28;19912;-78
2021/12/07 07:56:40;;;;;;;;;;;20.60;99.90;;;;;;5067962;28;19920;-78
2021/12/07 07:59:07;;;;;;;;;;;20.60;99.90;;;;;;5069266;28;19912;-77
2021/12/07 08:01:37;;;;;;;;;;;20.50;99.90;;;;;;5068354;28;19916;-78
2021/12/07 08:04:04;;;;;;;;;;;20.50;99.90;;;;;;5068507;28;20283;-76
2021/12/07 08:06:31;;;;;;;;;;;20.50;99.90;;;;;;5069787;28;19912;-77
2021/12/07 08:08:58;;;;;;;;;;;20.60;99.90;;;;;;5070193;28;19924;-79
2021/12/07 08:11:24;;;;;;;;;;;20.60;99.90;;;;;;5070533;28;19913;-77
2021/12/07 08:13:51;;;;;;;;;;;20.60;99.90;;;;;;5070254;28;20256;-79
2021/12/07 08:16:18;;;;;;;;;;;20.60;99.90;;;;;;5070827;28;19966;-77
2021/12/07 08:18:54;;;;;;;;;;;20.60;99.90;;;;;;5071342;28;20010;-78
2021/12/07 08:21:21;;;;;;;;;;;20.60;99.90;;;;;;5071547;28;20351;-79
2021/12/07 08:23:48;;;;;;;;;;;20.60;99.90;;;;;;5070350;28;19913;-79
2021/12/07 08:26:17;;;;;;;;;;;20.60;99.90;;;;;;5070516;28;19928;-79
2021/12/07 08:28:43;;;;;;;;;;;20.60;99.90;;;;;;5070225;28;19962;-78
2021/12/07 08:31:10;;;;;;;;;;;20.60;99.90;;;;;;5070390;28;20277;-80
2021/12/07 08:33:37;;;;;;;;;;;20.60;99.90;;;;;;5070336;28;19912;-80
2021/12/07 08:36:04;;;;;;;;;;;20.60;99.90;;;;;;5072013;28;20466;-79
2021/12/07 08:38:31;;;;;;;;;;;20.60;99.90;;;;;;5073807;28;19927;-81
2021/12/07 08:40:58;;;;;;;;;;;20.70;99.90;;;;;;5073673;28;20398;-81
2021/12/07 08:43:26;;;;;;;;;;;20.70;99.90;;;;;;5073955;28;20113;-81
2021/12/07 08:45:53;;;;;;;;;;;20.70;99.90;;;;;;5073922;28;19962;-81
2021/12/07 08:48:20;;;;;;;;;;;20.70;99.90;;;;;;5068426;28;19913;-81
2021/12/07 08:50:47;;;;;;;;;;;20.70;99.90;;;;;;5074067;28;19920;-80
2021/12/07 08:53:15;;;;;;;;;;;20.70;99.90;;;;;;5073746;28;19919;-79
2021/12/07 09:01:15;;;;;;;;;;;20.60;99.90;;;;;;5074110;28;19966;-77
2021/12/07 09:03:41;;;;;;;;;;;20.60;99.90;;;;;;5072102;28;20282;-80
2021/12/07 09:06:08;;;;;;;;;;;20.60;99.90;;;;;;5073556;28;19920;-80
2021/12/07 09:08:35;;;;;;;;;;;20.50;99.90;;;;;;5072439;28;20776;-77
2021/12/07 09:11:03;;;;;;;;;;;20.50;99.90;;;;;;5066200;28;20397;-80
2021/12/07 09:13:30;;;;;;;;;;;20.50;99.90;;;;;;5069399;28;19951;-80
2021/12/07 09:15:57;;;;;;;;;;;20.40;99.90;;;;;;5073483;28;19928;-80
2021/12/07 09:18:24;;;;;;;;;;;20.40;99.90;;;;;;5071820;28;19912;-81
2021/12/07 09:20:51;;;;;;;;;;;20.40;99.90;;;;;;5073340;28;19912;-81
2021/12/07 09:23:18;;;;;;;;;;;20.30;99.90;;;;;;5072685;28;19974;-79
2021/12/07 09:25:45;;;;;;;;;;;20.30;99.90;;;;;;5073038;28;19924;-81
2021/12/07 09:28:12;;;;;;;;;;;20.20;99.90;;;;;;5073460;28;19958;-81
2021/12/07 09:30:39;;;;;;;;;;;20.20;99.90;;;;;;5073241;28;20363;-81
2021/12/07 09:33:05;;;;;;;;;;;20.20;99.90;;;;;;5073440;28;20278;-80
2021/12/07 09:35:33;;;;;;;;;;;20.20;99.90;;;;;;5073064;28;19969;-79
2021/12/07 09:38:00;;;;;;;;;;;20.10;99.90;;;;;;5073209;28;19920;-79
2021/12/07 09:40:28;;;;;;;;;;;20.10;99.90;;;;;;5072332;28;20326;-79
2021/12/07 09:42:56;;;;;;;;;;;20.10;99.90;;;;;;5073076;28;19916;-81
2021/12/07 09:45:25;;;;;;;;;;;20.10;99.90;;;;;;5072496;28;20291;-80
2021/12/07 09:47:51;;;;;;;;;;;20.20;99.90;;;;;;5072137;28;19938;-80
2021/12/07 09:50:20;;;;;;;;;;;20.20;99.90;;;;;;5072716;28;20785;-81
2021/12/07 09:52:47;;;;;;;;;;;20.20;99.90;;;;;;5072890;28;20009;-81
2021/12/07 09:55:14;;;;;;;;;;;20.20;99.90;;;;;;5071596;28;20069;-79
2021/12/07 09:57:41;;;;;;;;;;;20.10;99.90;;;;;;5072791;28;19912;-80
2021/12/07 10:00:09;;;;;;;;;;;20.10;99.90;;;;;;5072058;28;20308;-80
2021/12/07 10:02:35;;;;;;;;;;;20.10;99.90;;;;;;5072800;28;19990;-80
2021/12/07 10:05:03;;;;;;;;;;;20.10;99.90;;;;;;5071091;28;19912;-79
2021/12/07 10:07:29;;;;;;;;;;;20.10;99.90;;;;;;5055127;28;19913;-78
2021/12/07 10:09:56;;;;;;;;;;;20.10;99.90;;;;;;5053574;28;19990;-80
2021/12/07 10:12:23;;;;;;;;;;;20.10;99.90;;;;;;5055890;28;20004;-79
2021/12/07 10:14:50;;;;;;;;;;;20.20;99.90;;;;;;5054296;28;19913;-79
2021/12/07 10:17:21;;;;;;;;;;;20.20;99.90;;;;;;5055595;28;20020;-81
2021/12/07 10:19:48;;;;;;;;;;;20.20;99.90;;;;;;5054025;28;19913;-81
2021/12/07 10:22:19;;;;;;;;;;;20.10;99.90;;;;;;5055313;28;19921;-80
2021/12/07 10:24:54;;;;;;;;;;;20.20;99.90;;;;;;5063406;28;19924;-81
2021/12/07 10:27:57;;;;;;;;;;;20.10;99.90;;;;;;5055320;28;20257;-79
2021/12/07 10:30:24;;;;;;;;;;;20.10;99.90;;;;;;5031164;28;19927;-81
2021/12/07 10:33:05;;;;;;;;;;;20.10;99.90;;;;;;5057703;28;19913;-80
2021/12/07 10:35:34;;;;;;;;;;;20.00;99.90;;;;;;5071462;28;20440;-81
2021/12/07 10:38:11;;;;;;;;;;;20.00;99.90;;;;;;5071156;28;19916;-83
2021/12/07 10:40:54;;;;;;;;;;;20.00;99.90;;;;;;5071192;28;19922;-82
2021/12/07 10:43:38;;;;;;;;;;;19.90;99.90;;;;;;5072354;28;19913;-81
2021/12/07 10:46:24;;;;;;;;;;;19.90;99.90;;;;;;5071648;28;19916;-81
2021/12/07 10:48:51;;;;;;;;;;;19.90;99.90;;;;;;5071298;28;19912;-81
2021/12/07 10:51:18;;;;;;;;;;;20.00;99.90;;;;;;5071725;28;20350;-78
2021/12/07 10:53:54;;;;;;;;;;;20.00;99.90;;;;;;5070886;28;19974;-79
2021/12/07 10:56:34;;;;;;;;;;;20.00;99.90;;;;;;5071394;28;19920;-82
2021/12/07 10:59:05;;;;;;;;;;;20.00;99.90;;;;;;5070083;28;20282;-80
2021/12/07 11:01:33;;;;;;;;;;;19.90;99.90;;;;;;5071535;28;19959;-80
2021/12/07 11:04:18;;;;;;;;;;;19.90;99.90;;;;;;5070594;28;19913;-80
2021/12/07 11:07:02;;;;;;;;;;;19.90;99.90;;;;;;5071451;28;19920;-80
2021/12/07 11:09:29;;;;;;;;;;;19.90;99.90;;;;;;5070959;28;19920;-81
2021/12/07 11:12:09;;;;;;;;;;;19.90;99.90;;;;;;5073250;28;20374;-80
2021/12/07 11:14:48;;;;;;;;;;;20.00;99.90;;;;;;5065832;28;19912;-79
2021/12/07 11:17:16;;;;;;;;;;;20.00;99.90;;;;;;5074787;28;19940;-81
2021/12/07 11:19:42;;;;;;;;;;;20.00;99.90;;;;;;5071365;28;20451;-79
2021/12/07 11:22:12;;;;;;;;;;;19.90;99.90;;;;;;5070188;28;20359;-78
2021/12/07 11:24:44;;;;;;;;;;;19.90;99.90;;;;;;5070968;28;19917;-80
2021/12/07 11:30:00;;;;;;;;;;;19.90;99.90;;;;;;5071419;28;19966;-78
2021/12/07 11:32:28;;;;;;;;;;;19.90;99.90;;;;;;5071287;28;20383;-79
2021/12/07 11:34:55;;;;;;;;;;;19.90;99.90;;;;;;5070245;28;20011;-78
2021/12/07 11:37:23;;;;;;;;;;;19.90;99.90;;;;;;5070414;28;19927;-79
2021/12/07 11:39:54;;;;;;;;;;;19.90;99.90;;;;;;5069572;28;20281;-78
2021/12/07 11:42:23;;;;;;;;;;;19.80;99.90;;;;;;5070248;28;19917;-78
2021/12/07 11:44:49;;;;;;;;;;;19.70;99.90;;;;;;5070856;28;19918;-78
2021/12/07 11:47:16;;;;;;;;;;;19.70;99.90;;;;;;5070507;28;19920;-78
2021/12/07 11:49:43;;;;;;;;;;;19.60;99.90;;;;;;5070897;28;19913;-77
2021/12/07 11:52:10;;;;;;;;;;;19.60;99.90;;;;;;5070230;28;19920;-78
2021/12/07 11:54:42;;;;;;;;;;;19.70;99.90;;;;;;5070978;28;20439;-77
2021/12/07 11:57:12;;;;;;;;;;;19.60;99.90;;;;;;5070304;28;19978;-77
2021/12/07 11:59:39;;;;;;;;;;;19.70;99.90;;;;;;5070818;28;19912;-78
2021/12/07 12:02:06;;;;;;;;;;;19.70;99.90;;;;;;5069994;28;20681;-78
2021/12/07 12:04:33;;;;;;;;;;;19.70;99.90;;;;;;5070840;28;19920;-77
2021/12/07 12:07:00;;;;;;;;;;;19.70;99.90;;;;;;5070350;28;19938;-78
2021/12/07 12:09:28;;;;;;;;;;;19.70;99.90;;;;;;5070438;28;19924;-78
2021/12/07 12:12:13;;;;;;;;;;;19.70;99.90;;;;;;5073564;28;20303;-77
2021/12/07 12:14:46;;;;;;;;;;;19.70;99.90;;;;;;5074354;28;19962;-79
2021/12/07 12:17:18;;;;;;;;;;;19.70;99.90;;;;;;5072884;28;19928;-79
2021/12/07 12:20:03;;;;;;;;;;;19.70;99.90;;;;;;5074612;28;19923;-77
2021/12/07 12:22:38;;;;;;;;;;;19.70;99.90;;;;;;5074362;28;20784;-78
2021/12/07 12:25:09;;;;;;;;;;;19.70;99.90;;;;;;5074177;28;19923;-78
2021/12/07 12:27:36;;;;;;;;;;;19.70;99.90;;;;;;5106331;28;19912;-78
2021/12/07 12:30:18;;;;;;;;;;;19.70;99.90;;;;;;5074599;28;19992;-77
2021/12/07 12:32:46;;;;;;;;;;;19.70;99.90;;;;;;5078371;28;20389;-78
2021/12/07 12:35:13;;;;;;;;;;;19.70;99.90;;;;;;5080568;28;19913;-78
2021/12/07 12:37:45;;;;;;;;;;;19.80;99.90;;;;;;5073585;28;19920;-80
2021/12/07 12:40:19;;;;;;;;;;;19.70;99.90;;;;;;5074056;28;19912;-78
2021/12/07 12:42:48;;;;;;;;;;;19.70;99.90;;;;;;5073853;28;19965;-78
2021/12/07 12:45:22;;;;;;;;;;;19.70;99.90;;;;;;5074088;28;19965;-77
2021/12/07 12:48:00;;;;;;;;;;;19.70;99.90;;;;;;5073445;28;19927;-77
2021/12/07 12:50:27;;;;;;;;;;;19.70;99.90;;;;;;5073534;28;19928;-77
2021/12/07 12:52:56;;;;;;;;;;;19.70;99.90;;;;;;5073152;28;19912;-76
2021/12/07 12:55:42;;;;;;;;;;;19.70;99.90;;;;;;5073450;28;20390;-77
2021/12/07 12:58:33;;;;;;;;;;;19.60;99.90;;;;;;5063703;28;20383;-77
2021/12/07 13:01:02;;;;;;;;;;;19.60;99.90;;;;;;5069485;28;19935;-77
2021/12/07 13:03:58;;;;;;;;;;;19.70;99.90;;;;;;5073865;28;20329;-79
2021/12/07 13:06:49;;;;;;;;;;;19.70;99.90;;;;;;5068879;28;19935;-79
2021/12/07 13:09:19;;;;;;;;;;;19.70;99.90;;;;;;5073020;28;19968;-78
2021/12/07 13:12:05;;;;;;;;;;;19.80;99.90;;;;;;5073736;28;20001;-80
2021/12/07 13:14:34;;;;;;;;;;;19.70;99.90;;;;;;5059964;28;19912;-81
2021/12/07 13:17:19;;;;;;;;;;;19.70;99.90;;;;;;5071199;28;19926;-81
2021/12/07 13:20:05;;;;;;;;;;;19.70;99.90;;;;;;5073023;28;19912;-78
2021/12/07 13:22:46;;;;;;;;;;;19.70;99.90;;;;;;5072255;28;20280;-77
2021/12/07 13:25:24;;;;;;;;;;;19.70;99.90;;;;;;5073871;28;19913;-79
2021/12/07 13:28:04;;;;;;;;;;;19.70;99.90;;;;;;5073001;28;19924;-77
2021/12/07 13:30:54;;;;;;;;;;;19.70;99.90;;;;;;5073097;28;19946;-78
2021/12/07 13:33:24;;;;;;;;;;;19.70;99.90;;;;;;5063972;28;20402;-79
2021/12/07 13:35:51;;;;;;;;;;;19.80;99.90;;;;;;5072363;28;19968;-83
2021/12/07 13:38:18;;;;;;;;;;;19.80;99.90;;;;;;5073256;28;20386;-78
2021/12/07 13:40:44;;;;;;;;;;;19.80;99.90;;;;;;5072736;28;19920;-77
2021/12/07 13:43:28;;;;;;;;;;;19.90;99.90;;;;;;5072997;28;19912;-78
2021/12/07 13:46:06;;;;;;;;;;;20.00;99.90;;;;;;5072211;28;19935;-81
2021/12/07 13:48:33;;;;;;;;;;;20.00;99.90;;;;;;5073040;28;19916;-79
2021/12/07 13:51:00;;;;;;;;;;;20.10;99.90;;;;;;5072353;28;19920;-76
2021/12/07 13:53:27;;;;;;;;;;;20.10;99.90;;;;;;5072927;28;20279;-79
2021/12/07 13:55:53;;;;;;;;;;;20.10;99.90;;;;;;5071996;28;19942;-78
2021/12/07 13:58:20;;;;;;;;;;;20.00;99.90;;;;;;5105463;28;20367;-80
2021/12/07 14:00:47;;;;;;;;;;;19.90;99.90;;;;;;5072245;28;20379;-77
2021/12/07 14:03:19;;;;;;;;;;;19.90;99.90;;;;;;5072575;28;19939;-78
2021/12/07 14:05:46;;;;;;;;;;;19.90;99.90;;;;;;5071829;28;19927;-77
2021/12/07 14:08:14;;;;;;;;;;;19.90;99.90;;;;;;5072171;28;19916;-77
2021/12/07 14:10:46;;;;;;;;;;;19.80;99.90;;;;;;5072189;28;19916;-77
2021/12/07 14:13:13;;;;;;;;;;;19.80;99.90;;;;;;5071843;28;19912;-77
2021/12/07 14:15:41;;;;;;;;;;;19.80;99.90;;;;;;5071660;28;19920;-78
2021/12/07 14:18:12;;;;;;;;;;;19.70;99.90;;;;;;5071172;28;20355;-78
2021/12/07 14:20:39;;;;;;;;;;;19.70;99.90;;;;;;5072102;28;19960;-77
2021/12/07 14:23:24;;;;;;;;;;;19.60;99.90;;;;;;5071949;28;19982;-78
2021/12/07 14:26:10;;;;;;;;;;;19.60;99.90;;;;;;5071503;28;21293;-76
2021/12/07 14:28:40;;;;;;;;;;;19.60;99.90;;;;;;5064501;28;19913;-77
2021/12/07 14:31:10;;;;;;;;;;;19.50;99.90;;;;;;5071430;28;19912;-77
2021/12/07 14:33:42;;;;;;;;;;;19.50;99.90;;;;;;5071934;28;20377;-77
2021/12/07 14:36:09;;;;;;;;;;;19.50;99.90;;;;;;5071137;28;19921;-77
2021/12/07 14:38:36;;;;;;;;;;;19.40;99.90;;;;;;5071971;28;20026;-77
2021/12/07 14:41:12;;;;;;;;;;;19.40;99.90;;;;;;5071241;28;19921;-76
2021/12/07 14:43:40;;;;;;;;;;;19.30;99.90;;;;;;5071827;28;20436;-76
2021/12/07 14:46:08;;;;;;;;;;;19.30;99.90;;;;;;5070955;28;19926;-76
2021/12/07 14:48:34;;;;;;;;;;;19.30;99.90;;;;;;5071782;28;19912;-76
2021/12/07 14:51:06;;;;;;;;;;;19.20;99.90;;;;;;5071152;28;19991;-78
2021/12/07 14:53:34;;;;;;;;;;;19.30;99.90;;;;;;5071730;28;19920;-76
2021/12/07 14:56:00;;;;;;;;;;;19.40;99.90;;;;;;5071001;28;20371;-77
2021/12/07 14:58:31;;;;;;;;;;;19.50;99.90;;;;;;5071772;28;19966;-77
2021/12/07 15:00:58;;;;;;;;;;;19.40;99.90;;;;;;5071388;28;19912;-76
2021/12/07 15:03:34;;;;;;;;;;;19.40;99.90;;;;;;5071517;28;19927;-76
2021/12/07 15:06:01;;;;;;;;;;;19.40;99.90;;;;;;5070927;28;19938;-76
2021/12/07 15:08:28;;;;;;;;;;;19.20;99.90;;;;;;5071459;28;19924;-77
2021/12/07 15:10:56;;;;;;;;;;;19.10;99.90;;;;;;5070927;28;19920;-76
2021/12/07 15:13:23;;;;;;;;;;;19.00;99.90;;;;;;5071438;28;19913;-78
2021/12/07 15:15:51;;;;;;;;;;;18.90;99.90;;;;;;5070400;28;19962;-78
2021/12/07 15:18:18;;;;;;;;;;;18.80;99.90;;;;;;5071526;28;19991;-77
2021/12/07 15:20:48;;;;;;;;;;;18.70;99.90;;;;;;5071128;28;19944;-78
2021/12/07 15:23:18;;;;;;;;;;;18.70;99.90;;;;;;5070133;28;20004;-79
2021/12/07 15:25:48;;;;;;;;;;;18.60;99.90;;;;;;5070991;28;19919;-81
2021/12/07 15:28:15;;;;;;;;;;;18.60;99.90;;;;;;5071013;28;19913;-81
2021/12/07 15:30:42;;;;;;;;;;;18.60;99.90;;;;;;5071147;28;19913;-79
2021/12/07 15:33:08;;;;;;;;;;;18.50;99.90;;;;;;5070903;28;19943;-80
2021/12/07 15:35:35;;;;;;;;;;;18.40;99.90;;;;;;5071431;28;19925;-82
2021/12/07 15:38:02;;;;;;;;;;;18.40;99.90;;;;;;5070861;28;20422;-81
2021/12/07 15:40:31;;;;;;;;;;;18.40;99.90;;;;;;5075170;28;20008;-78
2021/12/07 15:42:58;;;;;;;;;;;18.40;99.90;;;;;;5075633;28;19921;-78
2021/12/07 15:45:25;;;;;;;;;;;18.40;99.90;;;;;;5075644;28;19948;-80
2021/12/07 15:47:52;;;;;;;;;;;18.40;99.90;;;;;;5081330;28;19927;-82
2021/12/07 15:50:20;;;;;;;;;;;18.40;99.90;;;;;;5075764;28;19936;-84
2021/12/07 15:52:49;;;;;;;;;;;18.30;99.90;;;;;;5075440;28;19943;-81
2021/12/07 15:55:15;;;;;;;;;;;18.30;99.90;;;;;;5075421;28;19920;-81
2021/12/07 15:57:44;;;;;;;;;;;18.30;99.90;;;;;;5074553;28;19924;-78
2021/12/07 16:00:13;;;;;;;;;;;18.40;99.90;;;;;;5075096;28;19919;-81
2021/12/07 16:02:39;;;;;;;;;;;18.30;99.90;;;;;;5074650;28;19912;-80
2021/12/07 16:05:08;;;;;;;;;;;18.30;99.90;;;;;;5075009;28;19912;-80
2021/12/07 16:07:41;;;;;;;;;;;18.30;99.90;;;;;;5074622;28;20018;-80
2021/12/07 16:10:13;;;;;;;;;;;18.30;99.90;;;;;;5074517;28;19947;-83
2021/12/07 16:12:40;;;;;;;;;;;18.30;99.90;;;;;;5074282;28;19916;-82
2021/12/07 16:15:11;;;;;;;;;;;18.30;99.90;;;;;;5071692;28;19947;-82
2021/12/07 16:17:39;;;;;;;;;;;18.30;99.90;;;;;;5074531;28;19916;-83